METAR Data
IDs: Format: Raw Decoded Include TAF

Data at: 2033 UTC 21 Sep 2021

METAR for:KBTP (Butler Cnty/Scholter, PA, US)
Text:KBTP 211956Z AUTO 15005KT 10SM FEW041 SCT070 24/17 A3015 RMK AO2 SLP208 T02440167
Temperature: 24.4°C ( 76°F)
Dewpoint: 16.7°C ( 62°F) [RH = 62%]
Pressure (altimeter):30.15 inches Hg (1021.1 mb) [Sea level pressure: 1020.8 mb]
Winds:from the SSE (150 degrees) at 6 MPH (5 knots; 2.6 m/s)
Visibility:10 or more sm (16+ km)
Ceiling:at least 12,000 feet AGL
Clouds: few clouds at 4100 feet AGL, scattered clouds at 7000 feet AGL
QC Flag:automated observation with no human augmentation
Text:KBTP 211856Z AUTO 21004KT 10SM BKN070 24/17 A3017 RMK AO2 SLP214 T02390167
Temperature: 23.9°C ( 75°F)
Dewpoint: 16.7°C ( 62°F) [RH = 64%]
Pressure (altimeter):30.17 inches Hg (1021.8 mb) [Sea level pressure: 1021.4 mb]
Winds:from the SSW (210 degrees) at 5 MPH (4 knots; 2.1 m/s)
Visibility:10 or more sm (16+ km)
Ceiling:7000 feet AGL
Clouds: broken clouds at 7000 feet AGL
QC Flag:automated observation with no human augmentation